Time;durP1;ratioP1;P1;durP2;ratioP2;P2;SDS_P1;SDS_P2;PMS_P1;PMS_P2;Temp;Humidity;BMP_temperature;BMP_pressure;BME280_temperature;BME280_humidity;BME280_pressure;Samples;Min_cycle;Max_cycle;Signal;HPM_P1;HPM_P2
2022/01/25 00:28:44;;;;;;;94.80;47.00;;;;;;;1.49;95.43;102044.13;1632532;87;25819;-75
2022/01/25 00:31:10;;;;;;;93.80;44.85;;;;;;;1.50;95.32;102037.89;1631881;86;26018;-75
2022/01/25 00:33:41;;;;;;;90.00;42.37;;;;;;;1.52;95.38;102030.27;1632786;87;25885;-76
2022/01/25 00:36:12;;;;;;;90.95;41.92;;;;;;;1.54;95.55;102024.41;1632595;87;27499;-76
2022/01/25 00:38:38;;;;;;;80.83;35.68;;;;;;;1.53;95.48;102022.73;1632292;87;25919;-75
2022/01/25 00:41:05;;;;;;;87.40;41.42;;;;;;;1.54;95.50;102019.59;1632169;86;26419;-75
2022/01/25 00:43:31;;;;;;;89.60;44.30;;;;;;;1.55;95.55;102018.20;1632223;87;25788;-75
2022/01/25 00:46:02;;;;;;;91.12;40.67;;;;;;;1.56;95.53;102012.45;1632268;87;25827;-75
2022/01/25 00:48:41;;;;;;;90.22;40.55;;;;;;;1.57;95.48;102007.53;1631934;87;27519;-76
2022/01/25 00:51:16;;;;;;;88.87;42.83;;;;;;;1.59;95.51;101999.05;1630250;86;25775;-76
2022/01/25 00:56:12;;;;;;;94.03;40.00;;;;;;;1.62;95.60;102003.29;1632174;87;26678;-75
2022/01/25 00:58:38;;;;;;;82.90;39.53;;;;;;;1.58;95.72;102002.15;1632547;87;26065;-75
2022/01/25 01:01:04;;;;;;;83.87;38.98;;;;;;;1.58;95.68;102001.33;1632130;86;27478;-75
2022/01/25 01:03:31;;;;;;;87.53;39.98;;;;;;;1.58;95.65;102003.97;1632602;87;26565;-76
2022/01/25 01:05:57;;;;;;;85.85;39.05;;;;;;;1.57;95.78;101996.97;1632559;87;25815;-75
2022/01/25 01:08:23;;;;;;;81.65;39.13;;;;;;;1.58;95.74;101992.08;1632631;87;26668;-76
2022/01/25 01:10:49;;;;;;;87.40;39.42;;;;;;;1.58;96.15;101993.41;1631981;86;25864;-76
2022/01/25 01:13:44;;;;;;;89.35;41.50;;;;;;;1.60;95.84;101994.62;1632533;87;27429;-76
2022/01/25 01:29:27;;;;;;;77.35;38.38;;;;;;;1.63;95.96;101993.95;1632218;87;25831;-76
2022/01/25 01:37:42;;;;;;;70.67;31.95;;;;;;;1.65;96.13;101988.59;1604866;89;25962;-76
2022/01/25 01:40:05;;;;;;;78.33;36.25;;;;;;;1.66;96.19;101986.30;1612756;86;27533;-76
2022/01/25 01:42:46;;;;;;;75.42;32.88;;;;;;;1.65;96.14;101987.27;1618151;88;25365;-75
2022/01/25 01:45:06;;;;;;;85.70;36.95;;;;;;;1.65;96.32;101977.53;1618182;88;25777;-76
2022/01/25 01:47:26;;;;;;;76.15;33.80;;;;;;;1.67;96.24;101973.49;1619091;87;26894;-76
2022/01/25 01:49:49;;;;;;;;;;;;;;;1.67;96.41;101969.03;1623320;86;25822;-75
2022/01/25 01:52:15;;;;;;;73.62;32.55;;;;;;;1.65;96.16;101964.32;1621590;87;27475;-76
2022/01/25 01:54:42;;;;;;;78.20;37.58;;;;;;;1.64;96.32;101968.39;1621560;88;25949;-76
2022/01/25 01:57:09;;;;;;;79.42;36.80;;;;;;;1.64;96.20;101964.42;1621558;88;26438;-75
2022/01/25 01:59:35;;;;;;;77.15;33.70;;;;;;;1.65;96.15;101943.69;1621717;86;25863;-75
2022/01/25 02:02:03;;;;;;;79.45;36.60;;;;;;;1.66;96.17;101946.23;1621413;88;26582;-75
2022/01/25 02:04:29;;;;;;;84.20;36.90;;;;;;;1.66;96.29;101944.05;1622217;88;27480;-76
2022/01/25 02:06:55;;;;;;;74.00;33.60;;;;;;;1.68;96.20;101946.13;1621763;88;25815;-75
2022/01/25 02:09:22;;;;;;;74.42;33.05;;;;;;;1.71;96.44;101955.19;1621451;86;25847;-76
2022/01/25 02:11:49;;;;;;;83.15;35.73;;;;;;;1.70;96.48;101953.00;1621517;88;25833;-75
2022/01/25 02:14:16;;;;;;;77.75;33.83;;;;;;;1.68;96.24;101951.41;1621488;88;25742;-75
2022/01/25 02:24:47;;;;;;;76.47;30.85;;;;;;;1.63;96.43;101933.20;1621539;88;26743;-75
2022/01/25 02:27:14;;;;;;;88.58;35.63;;;;;;;1.61;96.58;101925.00;1621734;88;25951;-75
2022/01/25 02:29:40;;;;;;;79.10;33.88;;;;;;;1.63;96.58;101928.39;1621770;86;27466;-76
2022/01/25 02:32:08;;;;;;;71.92;33.20;;;;;;;1.62;96.68;101927.56;1621603;88;26635;-76
2022/01/25 02:34:34;;;;;;;82.57;32.15;;;;;;;1.62;96.60;101923.60;1612963;88;25938;-76
2022/01/25 02:37:08;;;;;;;68.90;28.80;;;;;;;1.63;96.64;101925.28;1632471;87;25775;-76
2022/01/25 02:39:37;;;;;;;80.53;34.20;;;;;;;1.63;96.75;101920.47;1632543;86;25831;-76
2022/01/25 02:42:06;;;;;;;79.62;32.33;;;;;;;1.63;96.80;101922.64;1632584;87;28293;-75
2022/01/25 02:44:34;;;;;;;77.58;32.30;;;;;;;1.64;96.88;101919.53;1632567;87;25775;-76
2022/01/25 02:49:32;;;;;;;79.42;33.35;;;;;;;1.64;96.95;101903.69;1632214;86;25761;-76
2022/01/25 02:52:00;;;;;;;82.27;32.67;;;;;;;1.64;97.00;101909.83;1632220;87;25348;-76
2022/01/25 02:54:27;;;;;;;72.32;28.92;;;;;;;1.65;97.03;101919.42;1632498;87;27500;-76
2022/01/25 02:56:54;;;;;;;67.55;29.07;;;;;;;1.65;96.97;101909.36;1632188;86;26037;-76
2022/01/25 02:59:20;;;;;;;70.60;29.85;;;;;;;1.64;97.09;101911.14;1632477;86;26495;-76
2022/01/25 03:01:48;;;;;;;68.72;27.60;;;;;;;1.64;97.04;101914.25;1632257;87;25840;-76
2022/01/25 03:04:18;;;;;;;61.42;25.45;;;;;;;1.65;97.00;101914.64;1632504;87;25826;-75
2022/01/25 03:06:45;;;;;;;64.25;28.83;;;;;;;1.64;97.10;101901.91;1631986;87;27645;-75
2022/01/25 03:09:12;;;;;;;65.97;26.25;;;;;;;1.65;97.05;101900.94;1631782;87;25975;-76
2022/01/25 03:11:38;;;;;;;64.07;26.33;;;;;;;1.68;97.16;101899.90;1632082;87;26083;-76
2022/01/25 03:14:09;;;;;;;61.28;25.88;;;;;;;1.68;97.18;101898.58;1632220;87;25912;-76
2022/01/25 03:17:28;;;;;;;51.13;21.42;;;;;;;1.68;97.04;101899.44;1632146;87;25784;-75
2022/01/25 03:19:42;;;;;;;60.08;23.92;;;;;;;1.69;97.14;101897.16;1622803;86;27563;-75
2022/01/25 03:22:00;;;;;;;51.18;21.45;;;;;;;1.69;96.97;101898.97;1629689;87;26239;-75
2022/01/25 03:24:26;;;;;;;61.65;25.12;;;;;;;1.70;97.03;101889.62;1632797;87;25861;-76
2022/01/25 03:26:53;;;;;;;58.70;24.98;;;;;;;1.71;97.00;101879.91;1632325;87;26515;-75
2022/01/25 03:29:19;;;;;;;56.08;24.35;;;;;;;1.74;97.08;101877.05;1607943;86;25850;-76
2022/01/25 03:31:46;;;;;;;56.40;23.70;;;;;;;1.73;96.98;101881.52;1632604;87;28261;-76
2022/01/25 03:34:12;;;;;;;46.92;22.48;;;;;;;1.75;97.13;101881.41;1632483;87;25808;-75
2022/01/25 03:36:38;;;;;;;53.87;24.30;;;;;;;1.75;96.96;101882.26;1632673;87;25866;-76
2022/01/25 03:39:06;;;;;;;55.10;26.48;;;;;;;1.74;96.98;101881.87;1632521;87;25785;-75
2022/01/25 03:41:34;;;;;;;50.75;23.00;;;;;;;1.75;97.03;101871.69;1632565;86;25963;-76
2022/01/25 03:44:01;;;;;;;51.60;24.15;;;;;;;1.75;97.03;101865.09;1632585;87;28254;-76
2022/01/25 03:46:38;;;;;;;54.48;24.55;;;;;;;1.76;97.09;101864.13;1632666;87;26101;-75
2022/01/25 03:51:44;;;;;;;48.48;22.15;;;;;;;1.77;96.99;101863.66;1632363;86;26579;-75
2022/01/25 03:54:11;;;;;;;50.55;23.83;;;;;;;1.77;97.36;101847.34;1632787;87;25844;-75
2022/01/25 03:56:38;;;;;;;49.25;23.10;;;;;;;1.76;97.05;101848.73;1632640;87;28343;-76
2022/01/25 03:59:06;;;;;;;56.05;22.75;;;;;;;1.78;97.22;101849.48;1632762;87;25759;-75
2022/01/25 04:01:35;;;;;;;49.33;23.30;;;;;;;1.77;97.14;101849.98;1632777;86;25784;-75
2022/01/25 04:04:07;;;;;;;61.68;25.25;;;;;;;1.79;97.12;101851.20;1632536;87;25750;-75
2022/01/25 04:06:33;;;;;;;53.20;25.72;;;;;;;1.79;97.12;101841.95;1632504;87;33800;-76
2022/01/25 04:09:03;;;;;;;56.83;25.15;;;;;;;1.80;97.11;101848.45;1632617;86;27470;-76
2022/01/25 04:11:30;;;;;;;51.50;25.00;;;;;;;1.83;97.13;101844.30;1632572;86;25757;-75
2022/01/25 04:13:58;;;;;;;54.15;22.55;;;;;;;1.85;97.07;101845.04;1632426;87;25313;-76
2022/01/25 04:17:17;;;;;;;54.53;24.67;;;;;;;1.87;97.13;101834.36;1632634;86;26373;-75
2022/01/25 04:19:18;;;;;;;52.58;22.95;;;;;;;1.86;97.12;101820.30;1628099;87;26451;-76
2022/01/25 04:26:55;;;;;;;58.28;25.52;;;;;;;1.90;97.19;101809.92;1632555;87;25756;-76
2022/01/25 04:29:22;;;;;;;51.42;23.83;;;;;;;1.90;97.19;101809.08;1632527;86;25949;-75
2022/01/25 04:31:48;;;;;;;61.05;24.63;;;;;;;1.90;97.22;101795.40;1632330;87;25925;-76
2022/01/25 04:50:54;;;;;;;56.10;24.98;;;;;;;1.94;97.48;101788.10;1631822;86;25722;-76
2022/01/25 04:53:12;;;;;;;61.08;26.25;;;;;;;1.96;97.46;101780.92;1629956;87;25834;-76
2022/01/25 04:55:37;;;;;;;67.65;27.13;;;;;;;1.96;97.49;101771.67;1631822;86;25837;-76
2022/01/25 04:58:07;;;;;;;71.90;27.22;;;;;;;1.98;97.51;101780.34;1632101;87;25823;-76
2022/01/25 05:00:28;;;;;;;61.83;26.55;;;;;;;1.99;97.46;101780.22;1631933;86;27566;-75
2022/01/25 05:03:05;;;;;;;58.83;27.00;;;;;;;1.98;97.48;101773.27;1632285;86;25856;-76
2022/01/25 05:05:32;;;;;;;59.70;27.00;;;;;;;1.98;97.48;101773.73;1631698;87;25799;-76
2022/01/25 05:08:03;;;;;;;57.35;26.42;;;;;;;1.99;97.41;101770.16;1632048;87;25886;-76
2022/01/25 05:10:23;;;;;;;68.65;27.73;;;;;;;2.00;97.47;101774.47;1631998;86;25955;-76
2022/01/25 05:13:07;;;;;;;73.40;31.12;;;;;;;2.00;97.47;101763.91;1632539;87;27571;-75
2022/01/25 05:15:25;;;;;;;71.85;31.75;;;;;;;1.99;97.40;101769.66;1630921;87;25736;-76
2022/01/25 05:23:21;;;;;;;69.50;29.37;;;;;;;2.03;97.41;101772.95;1632238;87;25340;-75
2022/01/25 05:25:48;;;;;;;74.50;29.77;;;;;;;2.01;97.39;101772.22;1632565;87;28296;-76
2022/01/25 05:28:14;;;;;;;72.82;30.15;;;;;;;2.01;97.52;101774.36;1632033;87;25410;-76
2022/01/25 05:30:40;;;;;;;71.90;29.45;;;;;;;2.02;97.42;101772.57;1632391;86;26526;-76
2022/01/25 05:33:06;;;;;;;67.22;29.10;;;;;;;2.03;97.48;101766.35;1632033;87;26571;-75
2022/01/25 05:35:32;;;;;;;70.32;28.12;;;;;;;2.01;97.50;101759.83;1632503;87;25872;-76
2022/01/25 05:37:59;;;;;;;83.40;31.77;;;;;;;2.00;97.59;101750.22;1632262;87;27488;-75
2022/01/25 05:40:56;;;;;;;72.85;29.07;;;;;;;2.01;97.56;101760.33;1632338;86;26269;-75
2022/01/25 05:45:56;;;;;;;73.40;29.77;;;;;;;1.98;97.69;101752.13;1601081;87;25838;-76
2022/01/25 05:48:06;;;;;;;78.97;32.20;;;;;;;1.99;97.75;101763.05;1629267;87;25875;-75
2022/01/25 05:50:33;;;;;;;85.87;35.52;;;;;;;1.98;97.74;101754.77;1632123;86;27553;-76
2022/01/25 05:52:59;;;;;;;89.97;35.85;;;;;;;1.98;97.68;101753.91;1632319;87;25956;-76
2022/01/25 05:55:25;;;;;;;81.08;33.05;;;;;;;2.01;97.71;101764.29;1632253;87;25972;-76
2022/01/25 05:57:51;;;;;;;79.72;31.60;;;;;;;2.01;97.66;101762.47;1632394;87;25784;-75
2022/01/25 06:00:18;;;;;;;74.77;29.20;;;;;;;2.00;97.79;101755.97;1632130;86;25362;-75
2022/01/25 06:02:45;;;;;;;80.07;32.73;;;;;;;2.00;97.72;101759.94;1632065;87;28300;-76
2022/01/25 06:05:11;;;;;;;69.45;31.10;;;;;;;1.99;97.75;101755.63;1632357;87;25788;-75
2022/01/25 06:07:38;;;;;;;78.02;30.85;;;;;;;1.98;97.83;101761.84;1632280;87;25853;-75
2022/01/25 06:10:06;;;;;;;70.78;30.72;;;;;;;1.98;97.84;101749.95;1632344;86;25840;-75
2022/01/25 06:12:32;;;;;;;72.35;30.68;;;;;;;1.98;97.81;101755.23;1632392;87;26559;-75
2022/01/25 06:14:58;;;;;;;65.05;28.85;;;;;;;1.99;97.71;101760.41;1632556;87;27430;-76
2022/01/25 06:17:24;;;;;;;73.20;31.42;;;;;;;2.00;97.91;101758.16;1632288;87;25821;-75
2022/01/25 06:19:51;;;;;;;66.75;29.30;;;;;;;2.00;97.79;101755.97;1632310;86;25729;-75
2022/01/25 06:22:17;;;;;;;64.75;27.25;;;;;;;1.99;97.72;101758.27;1632379;87;26458;-76
2022/01/25 06:24:43;;;;;;;66.33;28.17;;;;;;;1.99;97.79;101758.27;1632655;87;26510;-76
2022/01/25 06:27:09;;;;;;;52.88;23.92;;;;;;;1.98;97.70;101763.16;1632350;87;28401;-76
2022/01/25 06:29:36;;;;;;;60.43;26.42;;;;;;;1.99;98.00;101756.94;1632657;86;25851;-76
2022/01/25 06:32:03;;;;;;;62.08;28.77;;;;;;;1.99;97.83;101742.41;1632101;87;25838;-75
2022/01/25 06:34:29;;;;;;;53.05;24.85;;;;;;;1.97;97.76;101754.38;1632725;87;25832;-76
2022/01/25 06:36:55;;;;;;;57.93;25.65;;;;;;;1.97;97.87;101750.88;1632797;87;25818;-76
2022/01/25 06:39:21;;;;;;;51.92;24.92;;;;;;;1.95;97.81;101755.43;1632768;86;27460;-75
2022/01/25 06:41:48;;;;;;;56.73;26.15;;;;;;;1.95;97.84;101754.11;1632458;87;25800;-76
2022/01/25 06:44:14;;;;;;;57.93;25.40;;;;;;;1.95;97.86;101756.28;1633040;87;25967;-75
2022/01/25 06:46:40;;;;;;;53.00;25.17;;;;;;;1.94;97.86;101744.50;1632492;87;26000;-76
2022/01/25 06:49:06;;;;;;;54.00;24.43;;;;;;;1.94;97.81;101736.58;1632572;85;25844;-76
2022/01/25 06:51:32;;;;;;;52.58;24.90;;;;;;;1.95;97.82;101736.94;1632518;86;28263;-75
2022/01/25 06:53:59;;;;;;;43.25;22.35;;;;;;;1.95;97.86;101732.97;1632684;87;25769;-76
2022/01/25 06:56:25;;;;;;;46.60;24.67;;;;;;;1.94;97.90;101732.15;1633072;87;25824;-75
2022/01/25 06:58:51;;;;;;;45.17;23.62;;;;;;;1.97;97.83;101729.75;1632437;87;25862;-76
2022/01/25 07:01:17;;;;;;;43.98;20.30;;;;;;;1.96;97.80;101732.89;1632374;86;25414;-76
2022/01/25 07:03:45;;;;;;;47.45;22.32;;;;;;;1.99;97.88;101727.88;1632503;87;27472;-76
2022/01/25 07:06:11;;;;;;;43.65;20.50;;;;;;;1.96;97.83;101723.64;1632489;87;25852;-76
2022/01/25 07:08:37;;;;;;;40.95;20.45;;;;;;;1.97;97.93;101718.71;1632405;87;25927;-77
2022/01/25 07:11:03;;;;;;;43.42;20.75;;;;;;;1.98;98.03;101724.38;1632473;86;25934;-75
2022/01/25 07:13:30;;;;;;;42.33;21.80;;;;;;;1.97;98.02;101719.18;1632145;86;26530;-76
2022/01/25 07:15:56;;;;;;;44.77;20.90;;;;;;;1.97;98.08;101716.06;1632466;85;27488;-76
2022/01/25 07:18:22;;;;;;;40.80;21.40;;;;;;;1.98;98.14;101712.49;1632490;87;26576;-76
2022/01/25 07:20:48;;;;;;;46.08;20.95;;;;;;;1.98;98.18;101720.42;1632440;86;26326;-76
2022/01/25 07:23:14;;;;;;;41.90;20.60;;;;;;;2.00;98.16;101718.98;1632575;87;25867;-75
2022/01/25 07:25:41;;;;;;;42.80;20.80;;;;;;;2.01;98.35;101720.19;1632764;86;25958;-75
2022/01/25 07:28:07;;;;;;;39.63;20.90;;;;;;;2.02;98.22;101735.58;1632683;87;27646;-75
2022/01/25 07:30:33;;;;;;;43.40;21.57;;;;;;;2.05;98.13;101739.34;1632216;86;25914;-76
2022/01/25 07:33:05;;;;;;;41.08;20.90;;;;;;;2.07;98.19;101726.41;1632409;87;25748;-75
2022/01/25 07:35:28;;;;;;;42.53;21.40;;;;;;;2.07;98.18;101732.16;1632175;87;26550;-76
2022/01/25 07:37:54;;;;;;;39.20;19.87;;;;;;;2.08;98.13;101735.16;1632515;87;25818;-76
2022/01/25 07:40:20;;;;;;;40.67;20.62;;;;;;;2.08;98.16;101724.11;1632578;86;28356;-76
2022/01/25 07:42:46;;;;;;;33.45;17.25;;;;;;;2.07;98.24;101721.12;1632292;87;26619;-75
2022/01/25 07:45:13;;;;;;;40.03;20.25;;;;;;;2.08;98.27;101724.58;1632586;87;26612;-75
2022/01/25 07:47:40;;;;;;;40.50;20.77;;;;;;;2.07;98.20;101719.80;1632320;87;25930;-76
2022/01/25 07:50:09;;;;;;;41.58;21.07;;;;;;;2.10;98.24;101717.39;1632112;86;25970;-75
2022/01/25 07:52:36;;;;;;;44.10;21.75;;;;;;;2.08;98.30;101713.55;1632599;87;27553;-76
2022/01/25 07:55:04;;;;;;;38.63;20.30;;;;;;;2.08;98.41;101720.62;1632712;87;25927;-75
2022/01/25 07:57:30;;;;;;;39.73;20.75;;;;;;;2.11;98.31;101713.81;1632504;87;25766;-75
2022/01/25 07:59:58;;;;;;;37.00;19.50;;;;;;;2.15;98.33;101717.47;1632439;86;26005;-75
2022/01/25 08:02:24;;;;;;;33.92;18.32;;;;;;;2.17;98.33;101712.92;1632592;87;26513;-75
2022/01/25 08:04:51;;;;;;;37.48;21.48;;;;;;;2.18;98.23;101709.80;1632664;87;27548;-75
2022/01/25 08:07:18;;;;;;;38.60;21.10;;;;;;;2.21;98.25;101706.47;1632470;87;25839;-75
2022/01/25 08:09:44;;;;;;;42.23;20.80;;;;;;;2.24;98.22;101704.09;1632405;86;25827;-75
2022/01/25 08:12:11;;;;;;;36.63;20.60;;;;;;;2.25;98.16;101695.19;1632055;87;25889;-75
2022/01/25 08:14:42;;;;;;;30.75;18.27;;;;;;;2.27;98.15;101694.60;1632229;87;26005;-77
2022/01/25 08:17:08;;;;;;;37.20;18.92;;;;;;;2.27;98.11;101692.81;1632178;87;27505;-76
2022/01/25 08:19:35;;;;;;;35.15;21.97;;;;;;;2.27;98.17;101686.20;1632080;86;25748;-75
2022/01/25 08:22:01;;;;;;;32.25;19.67;;;;;;;2.30;98.27;101692.61;1632266;87;25443;-75
2022/01/25 08:24:29;;;;;;;34.18;18.32;;;;;;;2.35;98.29;101687.01;1632520;87;26572;-75
2022/01/25 08:26:56;;;;;;;32.28;18.05;;;;;;;2.39;98.24;101689.80;1632318;87;25747;-75
2022/01/25 08:29:22;;;;;;;31.52;17.85;;;;;;;2.40;98.14;101688.83;1632361;86;27658;-75
2022/01/25 08:31:49;;;;;;;31.65;17.50;;;;;;;2.42;98.13;101686.92;1607647;87;44442;-76
2022/01/25 08:34:15;;;;;;;30.35;16.50;;;;;;;2.44;98.15;101680.23;1632193;86;25772;-76
2022/01/25 08:36:41;;;;;;;30.37;17.05;;;;;;;2.45;98.15;101673.50;1632829;87;26529;-76
2022/01/25 08:39:08;;;;;;;25.88;14.65;;;;;;;2.47;98.15;101668.94;1632584;87;25946;-76
2022/01/25 08:41:35;;;;;;;24.40;14.73;;;;;;;2.47;98.19;101668.94;1632632;86;27591;-75
2022/01/25 08:44:01;;;;;;;28.47;16.85;;;;;;;2.47;98.15;101666.77;1632386;87;25780;-77
2022/01/25 08:46:28;;;;;;;26.50;15.68;;;;;;;2.46;98.13;101664.59;1632942;87;25777;-76
2022/01/25 08:48:54;;;;;;;22.75;13.78;;;;;;;2.47;98.19;101679.98;1632718;87;25784;-75
2022/01/25 08:51:20;;;;;;;24.37;14.00;;;;;;;2.47;98.21;101677.34;1632419;86;25998;-76
2022/01/25 08:53:48;;;;;;;25.37;13.72;;;;;;;2.47;98.20;101674.23;1632441;87;27553;-76
2022/01/25 08:56:14;;;;;;;21.95;13.70;;;;;;;2.47;98.23;101666.30;1632932;87;25284;-76
2022/01/25 08:58:41;;;;;;;23.00;14.33;;;;;;;2.50;98.38;101662.12;1632592;87;25813;-75
2022/01/25 09:01:07;;;;;;;22.42;13.53;;;;;;;2.50;98.23;101659.48;1632430;86;25903;-76
2022/01/25 09:03:33;;;;;;;21.95;13.40;;;;;;;2.51;98.23;101661.63;1632586;87;25910;-75
2022/01/25 09:06:00;;;;;;;22.13;13.60;;;;;;;2.52;98.24;101664.66;1632898;87;27518;-75
2022/01/25 09:08:28;;;;;;;24.90;13.78;;;;;;;2.53;98.34;101663.21;1632583;87;25877;-75
2022/01/25 09:10:59;;;;;;;22.95;14.10;;;;;;;2.54;98.38;101664.06;1632565;86;25398;-75
2022/01/25 09:13:23;;;;;;;21.82;13.28;;;;;;;2.55;98.39;101661.30;1632291;87;26497;-76
2022/01/25 09:15:49;;;;;;;17.48;10.82;;;;;;;2.56;98.38;101654.22;1632666;85;25852;-76
2022/01/25 09:18:16;;;;;;;20.30;13.40;;;;;;;2.56;98.41;101647.14;1632673;87;28286;-75
2022/01/25 09:20:42;;;;;;;21.05;12.80;;;;;;;2.56;98.31;101647.14;1632496;86;25891;-76
2022/01/25 09:23:09;;;;;;;20.60;12.50;;;;;;;2.57;98.37;101645.31;1632583;87;25950;-76
2022/01/25 09:25:35;;;;;;;21.23;13.15;;;;;;;2.58;98.43;101646.55;1633015;87;25875;-76
2022/01/25 09:28:03;;;;;;;24.35;14.05;;;;;;;2.60;98.52;101655.22;1632650;87;26001;-74
2022/01/25 09:30:30;;;;;;;27.93;18.50;;;;;;;2.61;98.38;101650.28;1632433;86;27491;-75
2022/01/25 09:32:57;;;;;;;18.77;12.65;;;;;;;2.64;98.40;101655.36;1632475;87;25816;-76
2022/01/25 09:35:24;;;;;;;20.92;12.85;;;;;;;2.66;98.41;101652.59;1632373;87;26473;-76
2022/01/25 09:37:51;;;;;;;18.65;12.13;;;;;;;2.67;98.31;101652.50;1632270;87;26487;-76
2022/01/25 09:40:20;;;;;;;22.22;13.22;;;;;;;2.69;98.26;101652.39;1632191;86;25922;-76
2022/01/25 09:42:50;;;;;;;23.70;15.80;;;;;;;2.69;98.19;101648.42;1631599;87;27503;-75
2022/01/25 09:45:14;;;;;;;22.40;12.80;;;;;;;2.72;98.36;101653.47;1608043;87;25878;-76
2022/01/25 09:47:40;;;;;;;20.45;13.08;;;;;;;2.69;98.26;101655.88;1632241;87;25830;-76
2022/01/25 09:50:07;;;;;;;21.35;14.03;;;;;;;2.71;98.72;101653.97;1632371;86;26655;-75
2022/01/25 09:52:35;;;;;;;17.85;11.38;;;;;;;2.84;99.31;101657.42;1633115;87;26498;-75
2022/01/25 09:55:01;;;;;;;16.40;11.28;;;;;;;2.96;99.36;101645.93;1633255;87;27493;-74
2022/01/25 09:57:28;;;;;;;19.12;11.93;;;;;;;3.07;99.05;101652.61;1633216;87;25878;-75
2022/01/25 09:59:56;;;;;;;20.15;12.55;;;;;;;3.15;98.77;101654.67;1632919;86;25315;-75
2022/01/25 10:02:55;;;;;;;19.92;12.43;;;;;;;3.28;98.82;101647.98;1633144;87;25835;-76
2022/01/25 10:05:32;;;;;;;20.23;11.88;;;;;;;3.38;98.35;101651.66;1632289;87;26642;-75
2022/01/25 10:08:11;;;;;;;21.70;12.65;;;;;;;3.45;97.80;101648.89;1633312;87;28929;-76
2022/01/25 10:10:45;;;;;;;22.13;13.25;;;;;;;3.42;96.96;101637.22;1632862;86;25888;-75
2022/01/25 10:13:22;;;;;;;22.37;13.65;;;;;;;3.33;96.51;101636.58;1632592;87;25810;-75
2022/01/25 10:15:59;;;;;;;23.60;13.70;;;;;;;3.25;96.61;101631.02;1632831;87;25819;-76
2022/01/25 10:18:48;;;;;;;39.75;22.60;;;;;;;3.21;96.69;101642.80;1632995;87;27190;-76
2022/01/25 10:21:31;;;;;;;18.82;12.65;;;;;;;3.17;96.79;101646.61;1633064;86;28307;-76
2022/01/25 10:24:09;;;;;;;21.80;12.40;;;;;;;3.10;97.04;101644.42;1633145;87;26009;-76
2022/01/25 10:27:01;;;;;;;26.55;15.25;;;;;;;3.07;97.08;101651.75;1633298;87;25801;-76
2022/01/25 10:29:34;;;;;;;18.82;10.88;;;;;;;3.08;97.34;101648.98;1627533;86;25836;-76
2022/01/25 10:32:09;;;;;;;18.27;12.43;;;;;;;3.08;97.46;101645.48;1632899;87;25811;-76
2022/01/25 10:34:45;;;;;;;18.30;12.07;;;;;;;3.06;97.33;101645.61;1633103;87;27458;-76
2022/01/25 10:37:17;;;;;;;21.00;12.58;;;;;;;3.05;97.55;101642.61;1632170;87;26510;-76
2022/01/25 10:39:47;;;;;;;20.90;12.88;;;;;;;3.06;97.61;101635.49;1633263;86;25839;-76
2022/01/25 10:42:23;;;;;;;19.55;12.68;;;;;;;3.07;97.75;101643.81;1632159;87;25791;-75
2022/01/25 10:45:02;;;;;;;17.35;11.43;;;;;;;3.05;97.79;101642.61;1631755;87;25954;-76
2022/01/25 10:47:51;;;;;;;16.65;10.28;;;;;;;3.07;97.87;101641.16;1632965;87;27495;-76
2022/01/25 10:50:35;;;;;;;21.68;12.90;;;;;;;3.07;98.11;101637.20;1632422;86;25785;-75
2022/01/25 10:53:16;;;;;;;20.43;13.18;;;;;;;3.06;97.96;101631.52;1632177;87;25816;-76
2022/01/25 10:55:51;;;;;;;23.27;13.08;;;;;;;3.08;98.00;101633.58;1633057;87;25758;-76
2022/01/25 10:58:17;;;;;;;21.02;12.65;;;;;;;3.10;98.16;101628.54;1633205;87;25821;-76
2022/01/25 11:00:49;;;;;;;24.18;15.43;;;;;;;3.09;98.06;101636.60;1632277;86;27503;-76
2022/01/25 11:03:41;;;;;;;17.90;11.60;;;;;;;3.11;98.20;101633.36;1632536;87;25838;-76
2022/01/25 11:06:19;;;;;;;20.27;12.33;;;;;;;3.09;98.17;101629.52;1632457;87;25755;-76
2022/01/25 11:08:49;;;;;;;43.78;26.82;;;;;;;3.08;98.18;101631.78;1632860;87;25950;-75
2022/01/25 11:11:39;;;;;;;81.87;44.63;;;;;;;3.10;98.34;101633.02;1632518;86;25821;-76
2022/01/25 11:14:50;;;;;;;38.23;22.13;;;;;;;3.11;98.37;101636.86;1631584;87;27569;-76
2022/01/25 11:16:32;;;;;;;23.98;15.38;;;;;;;3.13;98.39;101635.41;1628705;87;25773;-76
2022/01/25 11:18:58;;;;;;;20.65;13.45;;;;;;;3.12;98.48;101636.39;1632699;87;26009;-76
2022/01/25 11:21:25;;;;;;;32.83;18.57;;;;;;;3.12;98.57;101635.06;1632248;86;25828;-75
2022/01/25 11:23:52;;;;;;;30.72;17.85;;;;;;;3.15;98.53;101630.84;1632867;87;26620;-76
2022/01/25 11:26:21;;;;;;;31.20;20.40;;;;;;;3.16;98.30;101630.37;1632598;87;28311;-76
2022/01/25 11:28:48;;;;;;;22.55;14.40;;;;;;;3.16;98.43;101624.61;1632417;87;25936;-76
2022/01/25 11:31:21;;;;;;;20.97;14.18;;;;;;;3.17;98.43;101626.75;1632213;86;26522;-75
2022/01/25 11:33:50;;;;;;;24.43;14.53;;;;;;;3.17;98.47;101618.34;1608382;87;26272;-75
2022/01/25 11:36:16;;;;;;;22.02;12.33;;;;;;;3.17;98.41;101618.34;1632297;87;25918;-76
2022/01/25 11:38:50;;;;;;;33.55;19.10;;;;;;;3.18;98.47;101614.75;1632813;87;27467;-76
2022/01/25 11:41:22;;;;;;;51.30;28.50;;;;;;;3.17;98.46;101609.08;1631480;86;26667;-75
2022/01/25 11:44:11;;;;;;;33.58;20.10;;;;;;;3.17;98.61;101602.92;1632220;87;26019;-76
2022/01/25 11:46:41;;;;;;;42.27;21.90;;;;;;;3.14;98.63;101603.52;1632292;87;25790;-76
2022/01/25 11:49:17;;;;;;;33.25;17.15;;;;;;;3.14;98.69;101608.00;1632414;87;25838;-76
2022/01/25 11:51:45;;;;;;;25.10;14.70;;;;;;;3.14;98.96;101604.03;1632314;87;27525;-76
2022/01/25 11:54:11;;;;;;;36.48;19.57;;;;;;;3.15;99.02;101607.02;1632305;87;25738;-76
2022/01/25 11:56:39;;;;;;;68.78;36.23;;;;;;;3.14;99.15;101600.88;1632462;87;25860;-76
2022/01/25 11:59:05;;;;;;;80.03;35.13;;;;;;;3.16;99.35;101595.48;1632416;87;25793;-75
2022/01/25 12:01:35;;;;;;;42.95;19.80;;;;;;;3.17;99.19;101597.63;1632257;86;25928;-76
2022/01/25 12:04:11;;;;;;;23.77;12.45;;;;;;;3.19;99.34;101594.42;1632168;87;28324;-76
2022/01/25 12:06:44;;;;;;;25.05;15.03;;;;;;;3.19;99.41;101593.09;1632439;87;25857;-75
2022/01/25 12:09:20;;;;;;;21.85;12.75;;;;;;;3.21;99.36;101599.12;1631369;87;25999;-75
2022/01/25 12:11:57;;;;;;;23.32;13.15;;;;;;;3.20;99.32;101594.30;1632145;87;26593;-76
2022/01/25 12:14:33;;;;;;;23.12;12.85;;;;;;;3.22;99.44;101597.67;1631904;87;25917;-76
2022/01/25 12:17:06;;;;;;;;;;;;;;;3.25;99.64;101592.13;1634828;87;27471;-75
2022/01/25 12:19:50;;;;;;;22.22;12.50;;;;;;;3.23;99.44;101588.75;1632513;86;25796;-76
2022/01/25 12:22:38;;;;;;;70.00;40.95;;;;;;;3.25;99.57;101597.92;1632052;87;26513;-75
2022/01/25 12:25:23;;;;;;;28.50;16.85;;;;;;;3.26;99.64;101592.50;1632725;87;26623;-76
2022/01/25 12:27:58;;;;;;;19.30;12.03;;;;;;;3.23;99.66;101588.75;1632344;87;25875;-75
2022/01/25 12:30:32;;;;;;;29.90;16.05;;;;;;;3.22;99.77;101596.34;1632138;86;26987;-75
2022/01/25 12:33:10;;;;;;;23.57;13.25;;;;;;;3.23;99.77;101584.78;1632025;87;25891;-76
2022/01/25 12:35:48;;;;;;;20.60;12.35;;;;;;;3.27;99.82;101593.36;1632484;87;26491;-77
2022/01/25 12:38:24;;;;;;;24.82;14.38;;;;;;;3.28;99.76;101588.41;1632988;87;26518;-76
2022/01/25 12:41:00;;;;;;;19.77;12.13;;;;;;;3.29;99.86;101580.84;1632497;86;25837;-76
2022/01/25 12:43:38;;;;;;;19.40;11.80;;;;;;;3.27;99.76;101576.14;1632332;87;27561;-76
2022/01/25 12:46:11;;;;;;;20.65;12.37;;;;;;;3.26;99.84;101574.45;1636339;87;25992;-75
2022/01/25 12:48:47;;;;;;;18.37;10.43;;;;;;;3.26;99.80;101565.17;1625782;87;26231;-76
2022/01/25 12:51:20;;;;;;;18.67;11.25;;;;;;;3.28;99.81;101566.75;1606193;89;26000;-76
2022/01/25 12:53:51;;;;;;;17.60;11.08;;;;;;;3.29;99.88;101563.16;1632693;87;25840;-76
2022/01/25 12:56:22;;;;;;;21.97;12.58;;;;;;;3.30;99.92;101566.63;1632634;87;27486;-75
2022/01/25 12:58:51;;;;;;;;;;;;;;;3.32;100.00;101572.64;1635112;87;26006;-76